sensor_id;sensor_type;location;lat;lon;timestamp;P1;durP1;ratioP1;P2;durP2;ratioP2
26582;SDS011;14230;45.382;10.998;2023-05-20T00:02:16;7.63;;;4.80;;
26582;SDS011;14230;45.382;10.998;2023-05-20T00:04:44;8.30;;;5.60;;
26582;SDS011;14230;45.382;10.998;2023-05-20T00:07:11;8.27;;;5.70;;
26582;SDS011;14230;45.382;10.998;2023-05-20T00:09:39;7.53;;;5.68;;
26582;SDS011;14230;45.382;10.998;2023-05-20T00:12:07;7.35;;;6.15;;
26582;SDS011;14230;45.382;10.998;2023-05-20T00:14:34;6.47;;;5.55;;
26582;SDS011;14230;45.382;10.998;2023-05-20T00:17:02;7.90;;;6.03;;
26582;SDS011;14230;45.382;10.998;2023-05-20T00:19:29;10.50;;;5.38;;
26582;SDS011;14230;45.382;10.998;2023-05-20T00:21:57;7.07;;;5.80;;
26582;SDS011;14230;45.382;10.998;2023-05-20T00:24:25;6.70;;;5.65;;
26582;SDS011;14230;45.382;10.998;2023-05-20T00:26:53;8.02;;;5.75;;
26582;SDS011;14230;45.382;10.998;2023-05-20T00:29:20;7.35;;;5.45;;
26582;SDS011;14230;45.382;10.998;2023-05-20T00:31:48;11.27;;;6.22;;
26582;SDS011;14230;45.382;10.998;2023-05-20T00:34:15;10.70;;;5.78;;
26582;SDS011;14230;45.382;10.998;2023-05-20T00:36:43;8.77;;;6.28;;
26582;SDS011;14230;45.382;10.998;2023-05-20T00:39:11;8.10;;;5.53;;
26582;SDS011;14230;45.382;10.998;2023-05-20T00:41:38;6.38;;;5.40;;
26582;SDS011;14230;45.382;10.998;2023-05-20T00:44:06;8.68;;;5.85;;
26582;SDS011;14230;45.382;10.998;2023-05-20T00:46:34;7.55;;;5.72;;
26582;SDS011;14230;45.382;10.998;2023-05-20T00:49:02;8.25;;;5.25;;
26582;SDS011;14230;45.382;10.998;2023-05-20T00:51:30;8.20;;;5.65;;
26582;SDS011;14230;45.382;10.998;2023-05-20T00:53:59;9.65;;;5.97;;
26582;SDS011;14230;45.382;10.998;2023-05-20T00:56:26;6.53;;;5.50;;
26582;SDS011;14230;45.382;10.998;2023-05-20T00:58:55;7.72;;;5.60;;
26582;SDS011;14230;45.382;10.998;2023-05-20T01:01:23;10.90;;;5.80;;
26582;SDS011;14230;45.382;10.998;2023-05-20T01:03:51;7.25;;;5.82;;
26582;SDS011;14230;45.382;10.998;2023-05-20T01:06:19;9.38;;;6.45;;
26582;SDS011;14230;45.382;10.998;2023-05-20T01:08:46;7.63;;;5.63;;
26582;SDS011;14230;45.382;10.998;2023-05-20T01:11:17;8.43;;;5.97;;
26582;SDS011;14230;45.382;10.998;2023-05-20T01:14:01;7.30;;;5.63;;
26582;SDS011;14230;45.382;10.998;2023-05-20T01:16:32;9.60;;;5.88;;
26582;SDS011;14230;45.382;10.998;2023-05-20T01:19:02;7.82;;;6.13;;
26582;SDS011;14230;45.382;10.998;2023-05-20T01:21:38;11.95;;;6.13;;
26582;SDS011;14230;45.382;10.998;2023-05-20T01:24:09;6.90;;;5.43;;
26582;SDS011;14230;45.382;10.998;2023-05-20T01:26:37;6.63;;;5.70;;
26582;SDS011;14230;45.382;10.998;2023-05-20T01:29:04;7.63;;;5.47;;
26582;SDS011;14230;45.382;10.998;2023-05-20T01:31:32;8.40;;;5.85;;
26582;SDS011;14230;45.382;10.998;2023-05-20T01:34:03;8.80;;;6.20;;
26582;SDS011;14230;45.382;10.998;2023-05-20T01:36:31;9.93;;;6.07;;
26582;SDS011;14230;45.382;10.998;2023-05-20T01:38:59;13.07;;;6.93;;
26582;SDS011;14230;45.382;10.998;2023-05-20T01:41:28;10.57;;;6.80;;
26582;SDS011;14230;45.382;10.998;2023-05-20T01:43:57;8.70;;;7.05;;
26582;SDS011;14230;45.382;10.998;2023-05-20T01:46:24;10.82;;;6.47;;
26582;SDS011;14230;45.382;10.998;2023-05-20T01:48:52;9.85;;;6.63;;
26582;SDS011;14230;45.382;10.998;2023-05-20T01:51:19;9.93;;;6.53;;
26582;SDS011;14230;45.382;10.998;2023-05-20T01:53:47;8.52;;;6.63;;
26582;SDS011;14230;45.382;10.998;2023-05-20T01:56:15;8.30;;;6.68;;
26582;SDS011;14230;45.382;10.998;2023-05-20T01:58:42;8.98;;;6.40;;
26582;SDS011;14230;45.382;10.998;2023-05-20T02:01:10;7.82;;;5.97;;
26582;SDS011;14230;45.382;10.998;2023-05-20T02:03:37;8.18;;;6.50;;
26582;SDS011;14230;45.382;10.998;2023-05-20T02:06:05;10.45;;;6.75;;
26582;SDS011;14230;45.382;10.998;2023-05-20T02:08:33;7.53;;;5.85;;
26582;SDS011;14230;45.382;10.998;2023-05-20T02:11:00;7.22;;;6.07;;
26582;SDS011;14230;45.382;10.998;2023-05-20T02:13:28;7.05;;;6.20;;
26582;SDS011;14230;45.382;10.998;2023-05-20T02:15:56;7.47;;;6.00;;
26582;SDS011;14230;45.382;10.998;2023-05-20T02:18:23;9.70;;;6.13;;
26582;SDS011;14230;45.382;10.998;2023-05-20T02:20:52;7.47;;;5.80;;
26582;SDS011;14230;45.382;10.998;2023-05-20T02:23:20;9.57;;;5.97;;
26582;SDS011;14230;45.382;10.998;2023-05-20T02:25:47;10.32;;;6.40;;
26582;SDS011;14230;45.382;10.998;2023-05-20T02:28:15;8.77;;;6.93;;
26582;SDS011;14230;45.382;10.998;2023-05-20T02:30:42;8.60;;;6.25;;
26582;SDS011;14230;45.382;10.998;2023-05-20T02:33:10;7.35;;;5.93;;
26582;SDS011;14230;45.382;10.998;2023-05-20T02:35:38;7.38;;;5.82;;
26582;SDS011;14230;45.382;10.998;2023-05-20T02:38:06;10.27;;;6.22;;
26582;SDS011;14230;45.382;10.998;2023-05-20T02:40:35;10.68;;;5.57;;
26582;SDS011;14230;45.382;10.998;2023-05-20T02:43:03;8.55;;;5.78;;
26582;SDS011;14230;45.382;10.998;2023-05-20T02:45:32;7.90;;;5.82;;
26582;SDS011;14230;45.382;10.998;2023-05-20T02:48:00;7.10;;;5.75;;
26582;SDS011;14230;45.382;10.998;2023-05-20T02:50:30;8.80;;;5.90;;
26582;SDS011;14230;45.382;10.998;2023-05-20T02:52:58;7.15;;;5.60;;
26582;SDS011;14230;45.382;10.998;2023-05-20T02:55:25;7.85;;;6.28;;
26582;SDS011;14230;45.382;10.998;2023-05-20T02:57:54;6.97;;;5.88;;
26582;SDS011;14230;45.382;10.998;2023-05-20T03:00:24;10.70;;;5.65;;
26582;SDS011;14230;45.382;10.998;2023-05-20T03:02:54;6.53;;;5.50;;
26582;SDS011;14230;45.382;10.998;2023-05-20T03:05:22;11.73;;;6.75;;
26582;SDS011;14230;45.382;10.998;2023-05-20T03:07:50;7.60;;;5.93;;
26582;SDS011;14230;45.382;10.998;2023-05-20T03:10:17;8.38;;;5.85;;
26582;SDS011;14230;45.382;10.998;2023-05-20T03:12:45;7.50;;;5.30;;
26582;SDS011;14230;45.382;10.998;2023-05-20T03:15:14;9.93;;;6.38;;
26582;SDS011;14230;45.382;10.998;2023-05-20T03:17:42;10.02;;;6.80;;
26582;SDS011;14230;45.382;10.998;2023-05-20T03:20:09;10.32;;;5.90;;
26582;SDS011;14230;45.382;10.998;2023-05-20T03:22:39;10.25;;;5.70;;
26582;SDS011;14230;45.382;10.998;2023-05-20T03:25:07;8.27;;;6.57;;
26582;SDS011;14230;45.382;10.998;2023-05-20T03:27:35;7.55;;;6.72;;
26582;SDS011;14230;45.382;10.998;2023-05-20T03:30:04;8.80;;;5.68;;
26582;SDS011;14230;45.382;10.998;2023-05-20T03:32:32;8.10;;;5.75;;
26582;SDS011;14230;45.382;10.998;2023-05-20T03:35:00;9.88;;;6.13;;
26582;SDS011;14230;45.382;10.998;2023-05-20T03:37:27;8.63;;;5.43;;
26582;SDS011;14230;45.382;10.998;2023-05-20T03:39:55;6.75;;;5.75;;
26582;SDS011;14230;45.382;10.998;2023-05-20T03:42:23;10.25;;;6.95;;
26582;SDS011;14230;45.382;10.998;2023-05-20T03:44:50;9.27;;;6.28;;
26582;SDS011;14230;45.382;10.998;2023-05-20T03:47:18;8.98;;;6.70;;
26582;SDS011;14230;45.382;10.998;2023-05-20T03:49:45;8.82;;;7.50;;
26582;SDS011;14230;45.382;10.998;2023-05-20T03:52:13;9.18;;;6.43;;
26582;SDS011;14230;45.382;10.998;2023-05-20T03:54:41;11.30;;;6.63;;
26582;SDS011;14230;45.382;10.998;2023-05-20T03:57:08;15.73;;;6.47;;
26582;SDS011;14230;45.382;10.998;2023-05-20T03:59:38;11.57;;;7.25;;
26582;SDS011;14230;45.382;10.998;2023-05-20T04:02:07;13.05;;;7.32;;
26582;SDS011;14230;45.382;10.998;2023-05-20T04:04:35;9.85;;;7.38;;
26582;SDS011;14230;45.382;10.998;2023-05-20T04:07:03;10.90;;;7.03;;
26582;SDS011;14230;45.382;10.998;2023-05-20T04:09:34;10.57;;;7.65;;
26582;SDS011;14230;45.382;10.998;2023-05-20T04:12:03;8.00;;;6.22;;
26582;SDS011;14230;45.382;10.998;2023-05-20T04:14:32;11.65;;;6.63;;
26582;SDS011;14230;45.382;10.998;2023-05-20T04:17:02;10.48;;;7.78;;
26582;SDS011;14230;45.382;10.998;2023-05-20T04:19:32;10.32;;;6.07;;
26582;SDS011;14230;45.382;10.998;2023-05-20T04:22:00;14.20;;;7.65;;
26582;SDS011;14230;45.382;10.998;2023-05-20T04:24:28;11.73;;;7.35;;
26582;SDS011;14230;45.382;10.998;2023-05-20T04:26:55;11.05;;;7.30;;
26582;SDS011;14230;45.382;10.998;2023-05-20T04:29:22;10.13;;;7.15;;
26582;SDS011;14230;45.382;10.998;2023-05-20T04:31:50;11.85;;;7.30;;
26582;SDS011;14230;45.382;10.998;2023-05-20T04:34:18;14.45;;;7.22;;
26582;SDS011;14230;45.382;10.998;2023-05-20T04:36:53;9.65;;;7.20;;
26582;SDS011;14230;45.382;10.998;2023-05-20T04:39:20;9.90;;;6.55;;
26582;SDS011;14230;45.382;10.998;2023-05-20T04:41:51;10.00;;;6.78;;
26582;SDS011;14230;45.382;10.998;2023-05-20T04:44:21;9.80;;;6.70;;
26582;SDS011;14230;45.382;10.998;2023-05-20T04:46:50;8.90;;;6.38;;
26582;SDS011;14230;45.382;10.998;2023-05-20T04:49:18;10.15;;;6.85;;
26582;SDS011;14230;45.382;10.998;2023-05-20T04:51:46;9.48;;;6.90;;
26582;SDS011;14230;45.382;10.998;2023-05-20T04:54:17;8.98;;;6.90;;
26582;SDS011;14230;45.382;10.998;2023-05-20T04:56:46;7.18;;;6.10;;
26582;SDS011;14230;45.382;10.998;2023-05-20T04:59:13;8.27;;;6.10;;
26582;SDS011;14230;45.382;10.998;2023-05-20T05:01:41;8.18;;;6.57;;
26582;SDS011;14230;45.382;10.998;2023-05-20T05:04:09;8.48;;;6.10;;
26582;SDS011;14230;45.382;10.998;2023-05-20T05:06:36;9.43;;;7.45;;
26582;SDS011;14230;45.382;10.998;2023-05-20T05:09:04;9.50;;;6.53;;
26582;SDS011;14230;45.382;10.998;2023-05-20T05:11:31;10.25;;;6.10;;
26582;SDS011;14230;45.382;10.998;2023-05-20T05:13:59;6.20;;;5.60;;
26582;SDS011;14230;45.382;10.998;2023-05-20T05:16:27;7.90;;;6.07;;
26582;SDS011;14230;45.382;10.998;2023-05-20T05:18:54;9.13;;;5.95;;
26582;SDS011;14230;45.382;10.998;2023-05-20T05:21:22;9.38;;;6.40;;
26582;SDS011;14230;45.382;10.998;2023-05-20T05:23:49;11.93;;;6.45;;
26582;SDS011;14230;45.382;10.998;2023-05-20T05:26:17;9.88;;;5.97;;
26582;SDS011;14230;45.382;10.998;2023-05-20T05:28:44;11.02;;;5.45;;
26582;SDS011;14230;45.382;10.998;2023-05-20T05:31:12;6.50;;;5.40;;
26582;SDS011;14230;45.382;10.998;2023-05-20T05:33:40;10.13;;;5.97;;
26582;SDS011;14230;45.382;10.998;2023-05-20T05:36:08;7.93;;;6.43;;
26582;SDS011;14230;45.382;10.998;2023-05-20T05:38:35;14.57;;;5.88;;
26582;SDS011;14230;45.382;10.998;2023-05-20T05:41:03;8.52;;;5.60;;
26582;SDS011;14230;45.382;10.998;2023-05-20T05:43:32;8.43;;;5.60;;
26582;SDS011;14230;45.382;10.998;2023-05-20T05:46:00;10.35;;;6.50;;
26582;SDS011;14230;45.382;10.998;2023-05-20T05:48:32;8.85;;;5.78;;
26582;SDS011;14230;45.382;10.998;2023-05-20T05:50:59;10.13;;;5.80;;
26582;SDS011;14230;45.382;10.998;2023-05-20T05:53:27;9.65;;;6.13;;
26582;SDS011;14230;45.382;10.998;2023-05-20T05:55:54;8.35;;;6.13;;
26582;SDS011;14230;45.382;10.998;2023-05-20T05:58:22;7.97;;;6.30;;
26582;SDS011;14230;45.382;10.998;2023-05-20T06:00:50;8.23;;;5.53;;
26582;SDS011;14230;45.382;10.998;2023-05-20T06:03:18;10.50;;;6.28;;
26582;SDS011;14230;45.382;10.998;2023-05-20T06:05:46;7.90;;;5.68;;
26582;SDS011;14230;45.382;10.998;2023-05-20T06:08:14;7.32;;;5.50;;
26582;SDS011;14230;45.382;10.998;2023-05-20T06:10:47;8.57;;;5.53;;
26582;SDS011;14230;45.382;10.998;2023-05-20T06:13:16;7.72;;;6.18;;
26582;SDS011;14230;45.382;10.998;2023-05-20T06:15:43;11.27;;;5.80;;
26582;SDS011;14230;45.382;10.998;2023-05-20T06:18:12;8.43;;;5.90;;
26582;SDS011;14230;45.382;10.998;2023-05-20T06:20:39;6.90;;;5.75;;
26582;SDS011;14230;45.382;10.998;2023-05-20T06:23:06;5.63;;;5.05;;
26582;SDS011;14230;45.382;10.998;2023-05-20T06:25:42;9.27;;;6.03;;
26582;SDS011;14230;45.382;10.998;2023-05-20T06:28:10;6.65;;;5.70;;
26582;SDS011;14230;45.382;10.998;2023-05-20T06:30:38;7.50;;;5.80;;
26582;SDS011;14230;45.382;10.998;2023-05-20T06:33:07;8.80;;;5.75;;
26582;SDS011;14230;45.382;10.998;2023-05-20T06:35:35;6.43;;;5.28;;
26582;SDS011;14230;45.382;10.998;2023-05-20T06:38:03;8.50;;;5.63;;
26582;SDS011;14230;45.382;10.998;2023-05-20T06:40:32;9.05;;;6.47;;
26582;SDS011;14230;45.382;10.998;2023-05-20T06:43:00;8.02;;;5.43;;
26582;SDS011;14230;45.382;10.998;2023-05-20T06:45:46;7.25;;;5.30;;
26582;SDS011;14230;45.382;10.998;2023-05-20T06:48:22;8.07;;;5.53;;
26582;SDS011;14230;45.382;10.998;2023-05-20T06:50:51;6.85;;;5.47;;
26582;SDS011;14230;45.382;10.998;2023-05-20T06:53:19;7.80;;;6.07;;
26582;SDS011;14230;45.382;10.998;2023-05-20T06:55:47;13.18;;;6.05;;
26582;SDS011;14230;45.382;10.998;2023-05-20T06:58:15;19.52;;;11.77;;
26582;SDS011;14230;45.382;10.998;2023-05-20T07:00:43;12.82;;;8.50;;
26582;SDS011;14230;45.382;10.998;2023-05-20T07:03:10;7.15;;;5.75;;
26582;SDS011;14230;45.382;10.998;2023-05-20T07:05:38;6.97;;;5.30;;
26582;SDS011;14230;45.382;10.998;2023-05-20T07:08:07;7.57;;;5.68;;
26582;SDS011;14230;45.382;10.998;2023-05-20T07:10:35;6.70;;;5.57;;
26582;SDS011;14230;45.382;10.998;2023-05-20T07:13:03;7.78;;;5.72;;
26582;SDS011;14230;45.382;10.998;2023-05-20T07:15:30;9.15;;;5.68;;
26582;SDS011;14230;45.382;10.998;2023-05-20T07:17:58;6.85;;;4.90;;
26582;SDS011;14230;45.382;10.998;2023-05-20T07:20:25;9.38;;;5.72;;
26582;SDS011;14230;45.382;10.998;2023-05-20T07:22:54;13.02;;;5.45;;
26582;SDS011;14230;45.382;10.998;2023-05-20T07:25:34;7.85;;;5.38;;
26582;SDS011;14230;45.382;10.998;2023-05-20T07:28:02;6.13;;;5.15;;
26582;SDS011;14230;45.382;10.998;2023-05-20T07:30:30;9.68;;;5.45;;
26582;SDS011;14230;45.382;10.998;2023-05-20T07:33:17;9.90;;;5.15;;
26582;SDS011;14230;45.382;10.998;2023-05-20T07:35:46;7.88;;;5.05;;
26582;SDS011;14230;45.382;10.998;2023-05-20T07:38:13;6.85;;;5.18;;
26582;SDS011;14230;45.382;10.998;2023-05-20T07:40:42;7.68;;;5.85;;
26582;SDS011;14230;45.382;10.998;2023-05-20T07:43:09;8.85;;;6.20;;
26582;SDS011;14230;45.382;10.998;2023-05-20T07:45:37;7.60;;;5.13;;
26582;SDS011;14230;45.382;10.998;2023-05-20T07:48:05;7.45;;;5.70;;
26582;SDS011;14230;45.382;10.998;2023-05-20T07:50:34;7.45;;;6.25;;
26582;SDS011;14230;45.382;10.998;2023-05-20T07:53:04;5.60;;;4.80;;
26582;SDS011;14230;45.382;10.998;2023-05-20T07:55:33;7.25;;;5.70;;
26582;SDS011;14230;45.382;10.998;2023-05-20T07:58:04;6.80;;;5.72;;
26582;SDS011;14230;45.382;10.998;2023-05-20T08:00:33;6.45;;;5.45;;
26582;SDS011;14230;45.382;10.998;2023-05-20T08:03:04;7.03;;;5.38;;
26582;SDS011;14230;45.382;10.998;2023-05-20T08:05:57;7.15;;;5.68;;
26582;SDS011;14230;45.382;10.998;2023-05-20T08:08:25;5.93;;;5.32;;
26582;SDS011;14230;45.382;10.998;2023-05-20T08:11:00;9.98;;;5.97;;
26582;SDS011;14230;45.382;10.998;2023-05-20T08:13:29;9.30;;;5.85;;
26582;SDS011;14230;45.382;10.998;2023-05-20T08:16:00;7.63;;;5.40;;
26582;SDS011;14230;45.382;10.998;2023-05-20T08:18:29;9.70;;;6.35;;
26582;SDS011;14230;45.382;10.998;2023-05-20T08:20:58;7.05;;;5.25;;
26582;SDS011;14230;45.382;10.998;2023-05-20T08:23:26;7.32;;;5.90;;
26582;SDS011;14230;45.382;10.998;2023-05-20T08:25:53;9.13;;;5.95;;
26582;SDS011;14230;45.382;10.998;2023-05-20T08:28:23;6.82;;;5.68;;
26582;SDS011;14230;45.382;10.998;2023-05-20T08:30:50;7.80;;;6.10;;
26582;SDS011;14230;45.382;10.998;2023-05-20T08:33:18;7.28;;;6.03;;
26582;SDS011;14230;45.382;10.998;2023-05-20T08:35:47;13.50;;;6.75;;
26582;SDS011;14230;45.382;10.998;2023-05-20T08:38:15;8.70;;;6.85;;
26582;SDS011;14230;45.382;10.998;2023-05-20T08:40:42;11.02;;;6.45;;
26582;SDS011;14230;45.382;10.998;2023-05-20T08:43:10;12.90;;;7.47;;
26582;SDS011;14230;45.382;10.998;2023-05-20T08:45:37;9.77;;;7.35;;
26582;SDS011;14230;45.382;10.998;2023-05-20T08:48:10;14.48;;;7.82;;
26582;SDS011;14230;45.382;10.998;2023-05-20T08:50:37;11.18;;;8.65;;
26582;SDS011;14230;45.382;10.998;2023-05-20T08:53:05;14.02;;;8.55;;
26582;SDS011;14230;45.382;10.998;2023-05-20T08:55:53;10.63;;;8.50;;
26582;SDS011;14230;45.382;10.998;2023-05-20T08:58:30;13.20;;;8.50;;
26582;SDS011;14230;45.382;10.998;2023-05-20T09:01:01;12.73;;;9.23;;
26582;SDS011;14230;45.382;10.998;2023-05-20T09:03:29;10.55;;;9.15;;
26582;SDS011;14230;45.382;10.998;2023-05-20T09:06:05;13.15;;;9.68;;
26582;SDS011;14230;45.382;10.998;2023-05-20T09:08:34;17.30;;;9.25;;
26582;SDS011;14230;45.382;10.998;2023-05-20T09:11:02;13.48;;;10.02;;
26582;SDS011;14230;45.382;10.998;2023-05-20T09:13:30;12.20;;;10.10;;
26582;SDS011;14230;45.382;10.998;2023-05-20T09:16:01;13.15;;;9.85;;
26582;SDS011;14230;45.382;10.998;2023-05-20T09:18:29;14.38;;;10.35;;
26582;SDS011;14230;45.382;10.998;2023-05-20T09:20:57;12.30;;;10.40;;
26582;SDS011;14230;45.382;10.998;2023-05-20T09:23:32;13.23;;;10.23;;
26582;SDS011;14230;45.382;10.998;2023-05-20T09:26:03;12.43;;;10.02;;
26582;SDS011;14230;45.382;10.998;2023-05-20T09:28:31;17.08;;;11.05;;
26582;SDS011;14230;45.382;10.998;2023-05-20T09:30:59;17.35;;;10.73;;
26582;SDS011;14230;45.382;10.998;2023-05-20T09:33:31;12.85;;;11.20;;
26582;SDS011;14230;45.382;10.998;2023-05-20T09:36:02;14.10;;;10.63;;
26582;SDS011;14230;45.382;10.998;2023-05-20T09:38:35;16.25;;;11.63;;
26582;SDS011;14230;45.382;10.998;2023-05-20T09:41:06;13.95;;;10.93;;
26582;SDS011;14230;45.382;10.998;2023-05-20T09:43:37;12.00;;;9.65;;
26582;SDS011;14230;45.382;10.998;2023-05-20T09:46:05;14.45;;;9.95;;
26582;SDS011;14230;45.382;10.998;2023-05-20T09:48:34;21.02;;;10.57;;
26582;SDS011;14230;45.382;10.998;2023-05-20T09:51:05;16.67;;;11.47;;
26582;SDS011;14230;45.382;10.998;2023-05-20T09:53:34;15.82;;;10.40;;
26582;SDS011;14230;45.382;10.998;2023-05-20T09:56:02;18.88;;;12.82;;
26582;SDS011;14230;45.382;10.998;2023-05-20T09:58:30;14.93;;;10.82;;
26582;SDS011;14230;45.382;10.998;2023-05-20T10:01:01;13.45;;;11.45;;
26582;SDS011;14230;45.382;10.998;2023-05-20T10:03:29;14.13;;;11.45;;
26582;SDS011;14230;45.382;10.998;2023-05-20T10:06:05;18.95;;;12.23;;
26582;SDS011;14230;45.382;10.998;2023-05-20T10:08:57;16.40;;;10.75;;
26582;SDS011;14230;45.382;10.998;2023-05-20T10:11:38;13.15;;;11.50;;
26582;SDS011;14230;45.382;10.998;2023-05-20T10:19:58;14.55;;;11.57;;
26582;SDS011;14230;45.382;10.998;2023-05-20T10:22:27;14.60;;;11.20;;
26582;SDS011;14230;45.382;10.998;2023-05-20T10:24:59;13.23;;;11.20;;
26582;SDS011;14230;45.382;10.998;2023-05-20T10:27:42;18.52;;;11.73;;
26582;SDS011;14230;45.382;10.998;2023-05-20T10:30:14;14.60;;;11.75;;
26582;SDS011;14230;45.382;10.998;2023-05-20T10:32:52;13.10;;;10.77;;
26582;SDS011;14230;45.382;10.998;2023-05-20T10:35:23;13.38;;;11.75;;
26582;SDS011;14230;45.382;10.998;2023-05-20T10:38:05;17.90;;;12.47;;
26582;SDS011;14230;45.382;10.998;2023-05-20T10:40:36;14.82;;;11.88;;
26582;SDS011;14230;45.382;10.998;2023-05-20T10:43:07;14.77;;;12.68;;
26582;SDS011;14230;45.382;10.998;2023-05-20T10:45:50;14.23;;;11.48;;
26582;SDS011;14230;45.382;10.998;2023-05-20T10:48:23;13.70;;;11.93;;
26582;SDS011;14230;45.382;10.998;2023-05-20T10:50:58;13.77;;;11.07;;
26582;SDS011;14230;45.382;10.998;2023-05-20T10:53:39;15.65;;;11.00;;
26582;SDS011;14230;45.382;10.998;2023-05-20T10:56:17;15.75;;;10.43;;
26582;SDS011;14230;45.382;10.998;2023-05-20T10:58:47;13.32;;;10.93;;
26582;SDS011;14230;45.382;10.998;2023-05-20T11:01:16;13.45;;;11.25;;
26582;SDS011;14230;45.382;10.998;2023-05-20T11:03:48;13.55;;;11.00;;
26582;SDS011;14230;45.382;10.998;2023-05-20T11:06:16;15.27;;;12.10;;
26582;SDS011;14230;45.382;10.998;2023-05-20T11:08:44;13.82;;;11.93;;
26582;SDS011;14230;45.382;10.998;2023-05-20T11:11:13;16.42;;;11.85;;
26582;SDS011;14230;45.382;10.998;2023-05-20T11:13:41;12.90;;;11.07;;
26582;SDS011;14230;45.382;10.998;2023-05-20T11:16:08;14.27;;;11.65;;
26582;SDS011;14230;45.382;10.998;2023-05-20T11:18:36;16.45;;;12.10;;
26582;SDS011;14230;45.382;10.998;2023-05-20T11:21:04;14.48;;;12.25;;
26582;SDS011;14230;45.382;10.998;2023-05-20T11:23:34;13.45;;;11.50;;
26582;SDS011;14230;45.382;10.998;2023-05-20T11:26:06;16.52;;;11.77;;
26582;SDS011;14230;45.382;10.998;2023-05-20T11:28:34;14.25;;;11.38;;
26582;SDS011;14230;45.382;10.998;2023-05-20T11:31:02;14.63;;;11.50;;
26582;SDS011;14230;45.382;10.998;2023-05-20T11:33:30;14.98;;;11.55;;
26582;SDS011;14230;45.382;10.998;2023-05-20T11:35:58;18.08;;;11.70;;
26582;SDS011;14230;45.382;10.998;2023-05-20T11:38:25;16.13;;;11.93;;
26582;SDS011;14230;45.382;10.998;2023-05-20T11:40:54;15.25;;;10.90;;
26582;SDS011;14230;45.382;10.998;2023-05-20T11:43:22;14.30;;;12.75;;
26582;SDS011;14230;45.382;10.998;2023-05-20T11:45:54;18.38;;;12.40;;
26582;SDS011;14230;45.382;10.998;2023-05-20T11:48:25;15.38;;;12.90;;
26582;SDS011;14230;45.382;10.998;2023-05-20T11:50:53;14.43;;;12.50;;
26582;SDS011;14230;45.382;10.998;2023-05-20T11:53:22;16.00;;;12.15;;
26582;SDS011;14230;45.382;10.998;2023-05-20T11:55:57;19.80;;;14.32;;
26582;SDS011;14230;45.382;10.998;2023-05-20T11:58:26;19.50;;;12.00;;
26582;SDS011;14230;45.382;10.998;2023-05-20T12:00:57;18.55;;;13.32;;
26582;SDS011;14230;45.382;10.998;2023-05-20T12:03:39;18.88;;;13.25;;
26582;SDS011;14230;45.382;10.998;2023-05-20T12:06:07;16.38;;;12.50;;
26582;SDS011;14230;45.382;10.998;2023-05-20T12:08:38;18.55;;;12.85;;
26582;SDS011;14230;45.382;10.998;2023-05-20T12:11:05;15.70;;;11.27;;
26582;SDS011;14230;45.382;10.998;2023-05-20T12:13:33;16.80;;;12.45;;
26582;SDS011;14230;45.382;10.998;2023-05-20T12:16:01;14.70;;;12.05;;
26582;SDS011;14230;45.382;10.998;2023-05-20T12:18:31;16.65;;;14.82;;
26582;SDS011;14230;45.382;10.998;2023-05-20T12:20:59;15.32;;;11.05;;
26582;SDS011;14230;45.382;10.998;2023-05-20T12:23:27;14.75;;;12.18;;
26582;SDS011;14230;45.382;10.998;2023-05-20T12:25:59;17.92;;;12.88;;
26582;SDS011;14230;45.382;10.998;2023-05-20T12:28:27;15.98;;;11.93;;
26582;SDS011;14230;45.382;10.998;2023-05-20T12:30:54;15.05;;;13.38;;
26582;SDS011;14230;45.382;10.998;2023-05-20T12:33:22;17.33;;;12.25;;
26582;SDS011;14230;45.382;10.998;2023-05-20T12:35:50;16.17;;;11.95;;
26582;SDS011;14230;45.382;10.998;2023-05-20T12:38:20;17.92;;;12.70;;
26582;SDS011;14230;45.382;10.998;2023-05-20T12:40:48;16.95;;;12.70;;
26582;SDS011;14230;45.382;10.998;2023-05-20T12:43:15;16.63;;;11.75;;
26582;SDS011;14230;45.382;10.998;2023-05-20T12:45:42;18.80;;;12.93;;
26582;SDS011;14230;45.382;10.998;2023-05-20T12:48:10;14.93;;;12.13;;
26582;SDS011;14230;45.382;10.998;2023-05-20T12:50:38;18.20;;;12.65;;
26582;SDS011;14230;45.382;10.998;2023-05-20T12:53:06;17.25;;;12.30;;
26582;SDS011;14230;45.382;10.998;2023-05-20T12:55:33;14.52;;;12.88;;
26582;SDS011;14230;45.382;10.998;2023-05-20T12:58:01;16.90;;;12.30;;
26582;SDS011;14230;45.382;10.998;2023-05-20T13:00:29;19.20;;;12.68;;
26582;SDS011;14230;45.382;10.998;2023-05-20T13:02:58;16.08;;;12.35;;
26582;SDS011;14230;45.382;10.998;2023-05-20T13:05:25;18.92;;;12.60;;
26582;SDS011;14230;45.382;10.998;2023-05-20T13:07:53;18.10;;;12.95;;
26582;SDS011;14230;45.382;10.998;2023-05-20T13:10:20;16.15;;;11.90;;
26582;SDS011;14230;45.382;10.998;2023-05-20T13:12:49;14.00;;;11.48;;
26582;SDS011;14230;45.382;10.998;2023-05-20T13:15:16;16.85;;;11.40;;
26582;SDS011;14230;45.382;10.998;2023-05-20T13:17:44;14.13;;;11.48;;
26582;SDS011;14230;45.382;10.998;2023-05-20T13:20:12;14.43;;;10.90;;
26582;SDS011;14230;45.382;10.998;2023-05-20T13:22:39;14.48;;;11.20;;
26582;SDS011;14230;45.382;10.998;2023-05-20T13:25:07;11.88;;;9.50;;
26582;SDS011;14230;45.382;10.998;2023-05-20T13:27:38;14.75;;;11.45;;
26582;SDS011;14230;45.382;10.998;2023-05-20T13:30:06;13.70;;;11.00;;
26582;SDS011;14230;45.382;10.998;2023-05-20T13:32:35;13.55;;;11.85;;
26582;SDS011;14230;45.382;10.998;2023-05-20T13:35:03;14.15;;;10.98;;
26582;SDS011;14230;45.382;10.998;2023-05-20T13:37:30;13.48;;;11.20;;
26582;SDS011;14230;45.382;10.998;2023-05-20T13:39:58;17.63;;;11.80;;
26582;SDS011;14230;45.382;10.998;2023-05-20T13:42:25;14.90;;;11.73;;
26582;SDS011;14230;45.382;10.998;2023-05-20T13:44:53;18.65;;;11.68;;
26582;SDS011;14230;45.382;10.998;2023-05-20T13:47:20;14.75;;;12.05;;
26582;SDS011;14230;45.382;10.998;2023-05-20T13:49:48;14.55;;;12.63;;
26582;SDS011;14230;45.382;10.998;2023-05-20T13:52:15;15.60;;;11.73;;
26582;SDS011;14230;45.382;10.998;2023-05-20T13:54:43;15.85;;;13.02;;
26582;SDS011;14230;45.382;10.998;2023-05-20T13:57:15;18.40;;;14.38;;
26582;SDS011;14230;45.382;10.998;2023-05-20T13:59:43;14.77;;;12.73;;
26582;SDS011;14230;45.382;10.998;2023-05-20T14:02:10;16.85;;;14.82;;
26582;SDS011;14230;45.382;10.998;2023-05-20T14:04:38;14.23;;;11.48;;
26582;SDS011;14230;45.382;10.998;2023-05-20T14:07:06;19.17;;;13.95;;
26582;SDS011;14230;45.382;10.998;2023-05-20T14:09:35;16.95;;;12.82;;
26582;SDS011;14230;45.382;10.998;2023-05-20T14:12:04;17.33;;;12.40;;
26582;SDS011;14230;45.382;10.998;2023-05-20T14:14:32;17.08;;;12.65;;
26582;SDS011;14230;45.382;10.998;2023-05-20T14:16:59;17.38;;;13.15;;
26582;SDS011;14230;45.382;10.998;2023-05-20T14:19:27;16.50;;;13.43;;
26582;SDS011;14230;45.382;10.998;2023-05-20T14:21:55;15.18;;;12.38;;
26582;SDS011;14230;45.382;10.998;2023-05-20T14:24:24;15.02;;;11.75;;
26582;SDS011;14230;45.382;10.998;2023-05-20T14:26:52;16.25;;;12.30;;
26582;SDS011;14230;45.382;10.998;2023-05-20T14:29:19;20.45;;;13.15;;
26582;SDS011;14230;45.382;10.998;2023-05-20T14:31:47;17.70;;;12.93;;
26582;SDS011;14230;45.382;10.998;2023-05-20T14:34:14;16.17;;;12.63;;
26582;SDS011;14230;45.382;10.998;2023-05-20T14:36:42;15.88;;;14.07;;
26582;SDS011;14230;45.382;10.998;2023-05-20T14:39:10;16.67;;;12.48;;
26582;SDS011;14230;45.382;10.998;2023-05-20T14:41:37;17.35;;;13.98;;